sensor_id;sensor_type;location;lat;lon;timestamp;P1;durP1;ratioP1;P2;durP2;ratioP2
1679;SDS011;838;51.794;12.258;2023-04-24T00:00:10;4.10;;;2.50;;
1679;SDS011;838;51.794;12.258;2023-04-24T00:02:40;6.03;;;2.80;;
1679;SDS011;838;51.794;12.258;2023-04-24T00:05:13;5.40;;;3.27;;
1679;SDS011;838;51.794;12.258;2023-04-24T00:07:40;4.10;;;2.63;;
1679;SDS011;838;51.794;12.258;2023-04-24T00:10:07;3.70;;;2.50;;
1679;SDS011;838;51.794;12.258;2023-04-24T00:12:33;3.50;;;2.40;;
1679;SDS011;838;51.794;12.258;2023-04-24T00:14:59;4.63;;;1.90;;
1679;SDS011;838;51.794;12.258;2023-04-24T00:17:25;3.67;;;2.00;;
1679;SDS011;838;51.794;12.258;2023-04-24T00:19:51;4.03;;;2.03;;
1679;SDS011;838;51.794;12.258;2023-04-24T00:22:24;4.60;;;2.20;;
1679;SDS011;838;51.794;12.258;2023-04-24T00:24:50;3.27;;;2.00;;
1679;SDS011;838;51.794;12.258;2023-04-24T00:27:16;3.13;;;1.97;;
1679;SDS011;838;51.794;12.258;2023-04-24T00:29:42;3.97;;;2.10;;
1679;SDS011;838;51.794;12.258;2023-04-24T00:32:08;3.57;;;2.10;;
1679;SDS011;838;51.794;12.258;2023-04-24T00:34:33;3.47;;;2.33;;
1679;SDS011;838;51.794;12.258;2023-04-24T00:36:59;4.27;;;1.93;;
1679;SDS011;838;51.794;12.258;2023-04-24T00:39:25;4.27;;;2.53;;
1679;SDS011;838;51.794;12.258;2023-04-24T00:41:51;3.13;;;2.07;;
1679;SDS011;838;51.794;12.258;2023-04-24T00:44:18;4.97;;;2.13;;
1679;SDS011;838;51.794;12.258;2023-04-24T00:46:45;3.17;;;1.87;;
1679;SDS011;838;51.794;12.258;2023-04-24T00:49:12;3.27;;;1.83;;
1679;SDS011;838;51.794;12.258;2023-04-24T00:51:39;3.00;;;1.80;;
1679;SDS011;838;51.794;12.258;2023-04-24T00:54:05;3.10;;;1.70;;
1679;SDS011;838;51.794;12.258;2023-04-24T00:56:31;3.07;;;1.93;;
1679;SDS011;838;51.794;12.258;2023-04-24T00:58:57;4.47;;;2.20;;
1679;SDS011;838;51.794;12.258;2023-04-24T01:01:24;3.57;;;2.20;;
1679;SDS011;838;51.794;12.258;2023-04-24T01:03:50;3.40;;;2.27;;
1679;SDS011;838;51.794;12.258;2023-04-24T01:06:16;2.90;;;1.70;;
1679;SDS011;838;51.794;12.258;2023-04-24T01:08:44;3.10;;;1.80;;
1679;SDS011;838;51.794;12.258;2023-04-24T01:11:12;4.40;;;1.80;;
1679;SDS011;838;51.794;12.258;2023-04-24T01:13:38;3.30;;;1.70;;
1679;SDS011;838;51.794;12.258;2023-04-24T01:16:05;4.27;;;1.77;;
1679;SDS011;838;51.794;12.258;2023-04-24T01:18:31;2.70;;;1.63;;
1679;SDS011;838;51.794;12.258;2023-04-24T01:20:57;3.40;;;1.80;;
1679;SDS011;838;51.794;12.258;2023-04-24T01:23:25;4.30;;;2.10;;
1679;SDS011;838;51.794;12.258;2023-04-24T01:25:51;3.70;;;2.20;;
1679;SDS011;838;51.794;12.258;2023-04-24T01:28:17;4.20;;;1.53;;
1679;SDS011;838;51.794;12.258;2023-04-24T01:30:44;3.57;;;2.03;;
1679;SDS011;838;51.794;12.258;2023-04-24T01:33:09;3.07;;;1.80;;
1679;SDS011;838;51.794;12.258;2023-04-24T01:35:35;3.00;;;1.70;;
1679;SDS011;838;51.794;12.258;2023-04-24T01:38:02;3.23;;;1.50;;
1679;SDS011;838;51.794;12.258;2023-04-24T01:40:29;3.20;;;1.70;;
1679;SDS011;838;51.794;12.258;2023-04-24T01:42:55;4.20;;;1.97;;
1679;SDS011;838;51.794;12.258;2023-04-24T01:45:22;3.57;;;1.30;;
1679;SDS011;838;51.794;12.258;2023-04-24T01:47:48;3.30;;;1.70;;
1679;SDS011;838;51.794;12.258;2023-04-24T01:50:15;3.17;;;1.50;;
1679;SDS011;838;51.794;12.258;2023-04-24T01:52:41;2.77;;;1.30;;
1679;SDS011;838;51.794;12.258;2023-04-24T01:55:07;3.33;;;1.40;;
1679;SDS011;838;51.794;12.258;2023-04-24T01:57:33;3.00;;;1.53;;
1679;SDS011;838;51.794;12.258;2023-04-24T01:59:59;2.90;;;1.20;;
1679;SDS011;838;51.794;12.258;2023-04-24T02:02:25;2.87;;;1.50;;
1679;SDS011;838;51.794;12.258;2023-04-24T02:04:54;3.17;;;1.60;;
1679;SDS011;838;51.794;12.258;2023-04-24T02:07:21;4.33;;;1.40;;
1679;SDS011;838;51.794;12.258;2023-04-24T02:09:47;4.23;;;1.27;;
1679;SDS011;838;51.794;12.258;2023-04-24T02:12:13;3.00;;;1.50;;
1679;SDS011;838;51.794;12.258;2023-04-24T02:14:39;3.00;;;1.40;;
1679;SDS011;838;51.794;12.258;2023-04-24T02:17:05;3.00;;;1.40;;
1679;SDS011;838;51.794;12.258;2023-04-24T02:19:31;3.47;;;1.57;;
1679;SDS011;838;51.794;12.258;2023-04-24T02:21:57;4.43;;;1.50;;
1679;SDS011;838;51.794;12.258;2023-04-24T02:24:23;2.60;;;1.40;;
1679;SDS011;838;51.794;12.258;2023-04-24T02:26:48;2.93;;;1.27;;
1679;SDS011;838;51.794;12.258;2023-04-24T02:29:14;4.30;;;1.40;;
1679;SDS011;838;51.794;12.258;2023-04-24T02:31:40;3.77;;;1.20;;
1679;SDS011;838;51.794;12.258;2023-04-24T02:34:06;2.90;;;1.50;;
1679;SDS011;838;51.794;12.258;2023-04-24T02:36:31;3.20;;;1.57;;
1679;SDS011;838;51.794;12.258;2023-04-24T02:38:57;2.77;;;1.33;;
1679;SDS011;838;51.794;12.258;2023-04-24T02:41:23;3.10;;;1.00;;
1679;SDS011;838;51.794;12.258;2023-04-24T02:43:49;2.60;;;1.13;;
1679;SDS011;838;51.794;12.258;2023-04-24T02:46:15;3.30;;;1.50;;
1679;SDS011;838;51.794;12.258;2023-04-24T02:48:40;3.40;;;1.50;;
1679;SDS011;838;51.794;12.258;2023-04-24T02:51:06;2.70;;;1.30;;
1679;SDS011;838;51.794;12.258;2023-04-24T02:53:32;3.20;;;1.40;;
1679;SDS011;838;51.794;12.258;2023-04-24T02:55:58;3.73;;;1.30;;
1679;SDS011;838;51.794;12.258;2023-04-24T02:58:24;5.10;;;1.60;;
1679;SDS011;838;51.794;12.258;2023-04-24T03:00:53;4.10;;;1.43;;
1679;SDS011;838;51.794;12.258;2023-04-24T03:03:20;4.27;;;1.70;;
1679;SDS011;838;51.794;12.258;2023-04-24T03:05:46;4.70;;;1.57;;
1679;SDS011;838;51.794;12.258;2023-04-24T03:08:12;2.60;;;1.23;;
1679;SDS011;838;51.794;12.258;2023-04-24T03:10:39;2.80;;;1.50;;
1679;SDS011;838;51.794;12.258;2023-04-24T03:13:05;2.73;;;1.20;;
1679;SDS011;838;51.794;12.258;2023-04-24T03:15:31;3.20;;;1.60;;
1679;SDS011;838;51.794;12.258;2023-04-24T03:17:57;3.03;;;1.57;;
1679;SDS011;838;51.794;12.258;2023-04-24T03:20:22;3.27;;;1.63;;
1679;SDS011;838;51.794;12.258;2023-04-24T03:22:48;3.43;;;1.77;;
1679;SDS011;838;51.794;12.258;2023-04-24T03:25:14;2.70;;;1.23;;
1679;SDS011;838;51.794;12.258;2023-04-24T03:27:40;2.87;;;1.57;;
1679;SDS011;838;51.794;12.258;2023-04-24T03:30:06;8.07;;;2.10;;
1679;SDS011;838;51.794;12.258;2023-04-24T03:32:33;3.73;;;1.50;;
1679;SDS011;838;51.794;12.258;2023-04-24T03:34:58;2.80;;;1.30;;
1679;SDS011;838;51.794;12.258;2023-04-24T03:37:24;2.70;;;1.20;;
1679;SDS011;838;51.794;12.258;2023-04-24T03:39:51;3.13;;;1.53;;
1679;SDS011;838;51.794;12.258;2023-04-24T03:42:17;6.53;;;1.57;;
1679;SDS011;838;51.794;12.258;2023-04-24T03:44:43;2.90;;;1.47;;
1679;SDS011;838;51.794;12.258;2023-04-24T03:47:09;2.80;;;1.40;;
1679;SDS011;838;51.794;12.258;2023-04-24T03:49:34;3.33;;;1.63;;
1679;SDS011;838;51.794;12.258;2023-04-24T03:52:00;3.40;;;1.50;;
1679;SDS011;838;51.794;12.258;2023-04-24T03:54:26;3.73;;;1.47;;
1679;SDS011;838;51.794;12.258;2023-04-24T03:56:52;4.50;;;1.30;;
1679;SDS011;838;51.794;12.258;2023-04-24T03:59:18;3.13;;;1.70;;
1679;SDS011;838;51.794;12.258;2023-04-24T04:01:44;3.67;;;1.43;;
1679;SDS011;838;51.794;12.258;2023-04-24T04:04:10;2.80;;;1.40;;
1679;SDS011;838;51.794;12.258;2023-04-24T04:06:36;3.30;;;1.80;;
1679;SDS011;838;51.794;12.258;2023-04-24T04:09:02;3.80;;;1.53;;
1679;SDS011;838;51.794;12.258;2023-04-24T04:11:28;3.03;;;1.50;;
1679;SDS011;838;51.794;12.258;2023-04-24T04:13:55;3.13;;;1.60;;
1679;SDS011;838;51.794;12.258;2023-04-24T04:16:21;5.20;;;1.80;;
1679;SDS011;838;51.794;12.258;2023-04-24T04:18:47;3.10;;;1.57;;
1679;SDS011;838;51.794;12.258;2023-04-24T04:21:13;3.60;;;1.90;;
1679;SDS011;838;51.794;12.258;2023-04-24T04:23:39;3.23;;;1.60;;
1679;SDS011;838;51.794;12.258;2023-04-24T04:26:05;3.20;;;1.90;;
1679;SDS011;838;51.794;12.258;2023-04-24T04:28:31;3.33;;;1.70;;
1679;SDS011;838;51.794;12.258;2023-04-24T04:30:57;3.10;;;1.50;;
1679;SDS011;838;51.794;12.258;2023-04-24T04:33:23;4.53;;;1.60;;
1679;SDS011;838;51.794;12.258;2023-04-24T04:35:50;3.00;;;1.50;;
1679;SDS011;838;51.794;12.258;2023-04-24T04:38:21;3.10;;;1.40;;
1679;SDS011;838;51.794;12.258;2023-04-24T04:40:48;3.60;;;1.83;;
1679;SDS011;838;51.794;12.258;2023-04-24T04:43:13;3.67;;;1.80;;
1679;SDS011;838;51.794;12.258;2023-04-24T04:45:41;3.03;;;1.93;;
1679;SDS011;838;51.794;12.258;2023-04-24T04:48:08;5.23;;;2.07;;
1679;SDS011;838;51.794;12.258;2023-04-24T04:50:37;2.90;;;1.50;;
1679;SDS011;838;51.794;12.258;2023-04-24T04:53:03;3.40;;;1.93;;
1679;SDS011;838;51.794;12.258;2023-04-24T04:55:30;3.83;;;1.70;;
1679;SDS011;838;51.794;12.258;2023-04-24T04:57:56;3.60;;;1.90;;
1679;SDS011;838;51.794;12.258;2023-04-24T05:00:22;4.57;;;1.77;;
1679;SDS011;838;51.794;12.258;2023-04-24T05:02:50;3.30;;;1.83;;
1679;SDS011;838;51.794;12.258;2023-04-24T05:05:16;3.53;;;1.80;;
1679;SDS011;838;51.794;12.258;2023-04-24T05:07:42;4.10;;;1.40;;
1679;SDS011;838;51.794;12.258;2023-04-24T05:10:09;4.00;;;1.40;;
1679;SDS011;838;51.794;12.258;2023-04-24T05:12:35;3.57;;;1.67;;
1679;SDS011;838;51.794;12.258;2023-04-24T05:15:02;3.97;;;1.10;;
1679;SDS011;838;51.794;12.258;2023-04-24T05:17:29;3.60;;;1.50;;
1679;SDS011;838;51.794;12.258;2023-04-24T05:19:54;3.07;;;1.03;;
1679;SDS011;838;51.794;12.258;2023-04-24T05:22:20;5.73;;;1.30;;
1679;SDS011;838;51.794;12.258;2023-04-24T05:24:46;3.53;;;1.50;;
1679;SDS011;838;51.794;12.258;2023-04-24T05:27:13;3.03;;;1.50;;
1679;SDS011;838;51.794;12.258;2023-04-24T05:29:38;4.93;;;1.80;;
1679;SDS011;838;51.794;12.258;2023-04-24T05:32:05;2.93;;;1.40;;
1679;SDS011;838;51.794;12.258;2023-04-24T05:34:31;3.67;;;1.37;;
1679;SDS011;838;51.794;12.258;2023-04-24T05:36:57;2.97;;;1.23;;
1679;SDS011;838;51.794;12.258;2023-04-24T05:39:23;4.03;;;1.43;;
1679;SDS011;838;51.794;12.258;2023-04-24T05:41:50;3.00;;;1.20;;
1679;SDS011;838;51.794;12.258;2023-04-24T05:44:16;4.67;;;1.20;;
1679;SDS011;838;51.794;12.258;2023-04-24T05:46:41;3.13;;;1.10;;
1679;SDS011;838;51.794;12.258;2023-04-24T05:49:07;3.53;;;1.00;;
1679;SDS011;838;51.794;12.258;2023-04-24T05:51:33;3.57;;;1.10;;
1679;SDS011;838;51.794;12.258;2023-04-24T05:53:58;3.13;;;1.07;;
1679;SDS011;838;51.794;12.258;2023-04-24T05:56:24;2.33;;;0.90;;
1679;SDS011;838;51.794;12.258;2023-04-24T05:58:50;2.60;;;1.10;;
1679;SDS011;838;51.794;12.258;2023-04-24T06:01:16;2.90;;;1.30;;
1679;SDS011;838;51.794;12.258;2023-04-24T06:03:42;7.23;;;1.37;;
1679;SDS011;838;51.794;12.258;2023-04-24T06:06:08;2.43;;;1.13;;
1679;SDS011;838;51.794;12.258;2023-04-24T06:08:37;2.20;;;1.10;;
1679;SDS011;838;51.794;12.258;2023-04-24T06:11:02;3.20;;;1.33;;
1679;SDS011;838;51.794;12.258;2023-04-24T06:13:28;2.60;;;1.00;;
1679;SDS011;838;51.794;12.258;2023-04-24T06:15:54;3.87;;;1.60;;
1679;SDS011;838;51.794;12.258;2023-04-24T06:18:19;3.37;;;1.37;;
1679;SDS011;838;51.794;12.258;2023-04-24T06:20:46;2.63;;;1.40;;
1679;SDS011;838;51.794;12.258;2023-04-24T06:23:12;4.70;;;1.20;;
1679;SDS011;838;51.794;12.258;2023-04-24T06:25:38;2.90;;;1.10;;
1679;SDS011;838;51.794;12.258;2023-04-24T06:28:03;2.70;;;1.00;;
1679;SDS011;838;51.794;12.258;2023-04-24T06:30:31;2.60;;;1.07;;
1679;SDS011;838;51.794;12.258;2023-04-24T06:32:57;2.70;;;1.30;;
1679;SDS011;838;51.794;12.258;2023-04-24T06:35:23;5.23;;;1.30;;
1679;SDS011;838;51.794;12.258;2023-04-24T06:37:48;3.73;;;1.30;;
1679;SDS011;838;51.794;12.258;2023-04-24T06:40:15;2.60;;;1.17;;
1679;SDS011;838;51.794;12.258;2023-04-24T06:42:43;2.93;;;1.17;;
1679;SDS011;838;51.794;12.258;2023-04-24T06:45:14;4.60;;;1.30;;
1679;SDS011;838;51.794;12.258;2023-04-24T06:47:40;5.00;;;1.07;;
1679;SDS011;838;51.794;12.258;2023-04-24T06:50:05;2.40;;;0.90;;
1679;SDS011;838;51.794;12.258;2023-04-24T06:52:31;2.67;;;0.80;;
1679;SDS011;838;51.794;12.258;2023-04-24T06:55:01;2.63;;;0.83;;
1679;SDS011;838;51.794;12.258;2023-04-24T06:57:28;2.37;;;0.80;;
1679;SDS011;838;51.794;12.258;2023-04-24T06:59:54;2.57;;;1.07;;
1679;SDS011;838;51.794;12.258;2023-04-24T07:02:20;4.53;;;1.20;;
1679;SDS011;838;51.794;12.258;2023-04-24T07:04:46;2.67;;;1.00;;
1679;SDS011;838;51.794;12.258;2023-04-24T07:07:12;2.93;;;1.10;;
1679;SDS011;838;51.794;12.258;2023-04-24T07:09:39;2.97;;;1.33;;
1679;SDS011;838;51.794;12.258;2023-04-24T07:12:10;2.50;;;1.23;;
1679;SDS011;838;51.794;12.258;2023-04-24T07:14:36;2.50;;;1.30;;
1679;SDS011;838;51.794;12.258;2023-04-24T07:17:06;3.33;;;1.20;;
1679;SDS011;838;51.794;12.258;2023-04-24T07:19:33;3.07;;;1.23;;
1679;SDS011;838;51.794;12.258;2023-04-24T07:22:00;3.20;;;1.60;;
1679;SDS011;838;51.794;12.258;2023-04-24T07:24:26;4.63;;;1.10;;
1679;SDS011;838;51.794;12.258;2023-04-24T07:26:52;3.17;;;1.40;;
1679;SDS011;838;51.794;12.258;2023-04-24T07:29:19;3.90;;;1.47;;
1679;SDS011;838;51.794;12.258;2023-04-24T07:31:45;2.97;;;1.27;;
1679;SDS011;838;51.794;12.258;2023-04-24T07:34:11;3.47;;;1.30;;
1679;SDS011;838;51.794;12.258;2023-04-24T07:36:37;2.90;;;1.53;;
1679;SDS011;838;51.794;12.258;2023-04-24T07:39:03;3.37;;;1.37;;
1679;SDS011;838;51.794;12.258;2023-04-24T07:41:31;4.23;;;1.10;;
1679;SDS011;838;51.794;12.258;2023-04-24T07:43:59;4.10;;;1.53;;
1679;SDS011;838;51.794;12.258;2023-04-24T07:46:25;4.03;;;1.33;;
1679;SDS011;838;51.794;12.258;2023-04-24T07:48:54;2.70;;;1.30;;
1679;SDS011;838;51.794;12.258;2023-04-24T07:51:20;2.57;;;1.20;;
1679;SDS011;838;51.794;12.258;2023-04-24T07:53:46;6.30;;;1.30;;
1679;SDS011;838;51.794;12.258;2023-04-24T07:56:12;2.60;;;1.20;;
1679;SDS011;838;51.794;12.258;2023-04-24T07:58:38;2.60;;;1.00;;
1679;SDS011;838;51.794;12.258;2023-04-24T08:01:04;2.87;;;1.13;;
1679;SDS011;838;51.794;12.258;2023-04-24T08:03:30;3.30;;;1.30;;
1679;SDS011;838;51.794;12.258;2023-04-24T08:05:56;3.03;;;1.10;;
1679;SDS011;838;51.794;12.258;2023-04-24T08:08:22;2.70;;;1.20;;
1679;SDS011;838;51.794;12.258;2023-04-24T08:10:48;2.80;;;1.40;;
1679;SDS011;838;51.794;12.258;2023-04-24T08:13:14;2.67;;;1.20;;
1679;SDS011;838;51.794;12.258;2023-04-24T08:15:40;2.77;;;0.90;;
1679;SDS011;838;51.794;12.258;2023-04-24T08:18:06;2.87;;;0.90;;
1679;SDS011;838;51.794;12.258;2023-04-24T08:20:32;2.73;;;1.20;;
1679;SDS011;838;51.794;12.258;2023-04-24T08:22:58;2.60;;;0.90;;
1679;SDS011;838;51.794;12.258;2023-04-24T08:25:23;3.37;;;0.90;;
1679;SDS011;838;51.794;12.258;2023-04-24T08:27:50;3.00;;;1.10;;
1679;SDS011;838;51.794;12.258;2023-04-24T08:30:16;2.83;;;1.10;;
1679;SDS011;838;51.794;12.258;2023-04-24T08:32:42;2.60;;;1.00;;
1679;SDS011;838;51.794;12.258;2023-04-24T08:35:07;4.07;;;1.13;;
1679;SDS011;838;51.794;12.258;2023-04-24T08:37:34;2.20;;;0.80;;
1679;SDS011;838;51.794;12.258;2023-04-24T08:40:03;3.43;;;1.00;;
1679;SDS011;838;51.794;12.258;2023-04-24T08:42:33;2.20;;;0.80;;
1679;SDS011;838;51.794;12.258;2023-04-24T08:45:01;2.20;;;0.80;;
1679;SDS011;838;51.794;12.258;2023-04-24T08:47:28;2.10;;;0.80;;
1679;SDS011;838;51.794;12.258;2023-04-24T08:49:55;2.97;;;0.90;;
1679;SDS011;838;51.794;12.258;2023-04-24T08:52:21;2.23;;;0.70;;
1679;SDS011;838;51.794;12.258;2023-04-24T08:54:47;2.10;;;0.70;;
1679;SDS011;838;51.794;12.258;2023-04-24T08:57:14;2.20;;;0.90;;
1679;SDS011;838;51.794;12.258;2023-04-24T08:59:40;2.80;;;1.07;;
1679;SDS011;838;51.794;12.258;2023-04-24T09:02:08;2.50;;;0.90;;
1679;SDS011;838;51.794;12.258;2023-04-24T09:04:36;3.03;;;1.00;;
1679;SDS011;838;51.794;12.258;2023-04-24T09:07:02;2.40;;;0.80;;
1679;SDS011;838;51.794;12.258;2023-04-24T09:09:31;2.40;;;0.87;;
1679;SDS011;838;51.794;12.258;2023-04-24T09:11:58;2.47;;;0.90;;
1679;SDS011;838;51.794;12.258;2023-04-24T09:14:24;2.50;;;0.93;;
1679;SDS011;838;51.794;12.258;2023-04-24T09:16:50;3.70;;;1.00;;
1679;SDS011;838;51.794;12.258;2023-04-24T09:19:16;2.20;;;0.77;;
1679;SDS011;838;51.794;12.258;2023-04-24T09:21:45;2.50;;;0.83;;
1679;SDS011;838;51.794;12.258;2023-04-24T09:24:18;3.00;;;0.90;;
1679;SDS011;838;51.794;12.258;2023-04-24T09:26:47;2.40;;;0.70;;
1679;SDS011;838;51.794;12.258;2023-04-24T09:29:17;2.53;;;0.83;;
1679;SDS011;838;51.794;12.258;2023-04-24T09:31:44;2.80;;;0.80;;
1679;SDS011;838;51.794;12.258;2023-04-24T09:34:10;2.30;;;0.70;;
1679;SDS011;838;51.794;12.258;2023-04-24T09:36:41;3.40;;;0.87;;
1679;SDS011;838;51.794;12.258;2023-04-24T09:39:11;2.20;;;0.77;;
1679;SDS011;838;51.794;12.258;2023-04-24T09:41:44;2.43;;;0.80;;
1679;SDS011;838;51.794;12.258;2023-04-24T09:44:14;2.23;;;1.00;;
1679;SDS011;838;51.794;12.258;2023-04-24T09:46:42;2.00;;;0.80;;
1679;SDS011;838;51.794;12.258;2023-04-24T09:49:09;2.40;;;0.90;;
1679;SDS011;838;51.794;12.258;2023-04-24T09:51:41;2.20;;;0.80;;
1679;SDS011;838;51.794;12.258;2023-04-24T09:54:13;3.00;;;1.10;;
1679;SDS011;838;51.794;12.258;2023-04-24T09:56:44;2.87;;;1.00;;
1679;SDS011;838;51.794;12.258;2023-04-24T09:59:11;3.07;;;1.20;;
1679;SDS011;838;51.794;12.258;2023-04-24T10:01:38;3.53;;;1.00;;
1679;SDS011;838;51.794;12.258;2023-04-24T10:04:06;3.07;;;1.07;;
1679;SDS011;838;51.794;12.258;2023-04-24T10:06:41;2.27;;;1.00;;
1679;SDS011;838;51.794;12.258;2023-04-24T10:09:08;4.13;;;1.00;;
1679;SDS011;838;51.794;12.258;2023-04-24T10:11:37;2.20;;;1.13;;
1679;SDS011;838;51.794;12.258;2023-04-24T10:14:09;2.70;;;1.20;;
1679;SDS011;838;51.794;12.258;2023-04-24T10:16:39;3.37;;;1.30;;
1679;SDS011;838;51.794;12.258;2023-04-24T10:19:06;2.30;;;1.00;;
1679;SDS011;838;51.794;12.258;2023-04-24T10:21:32;2.20;;;1.00;;
1679;SDS011;838;51.794;12.258;2023-04-24T10:23:59;2.10;;;1.00;;
1679;SDS011;838;51.794;12.258;2023-04-24T10:26:28;2.37;;;0.80;;
1679;SDS011;838;51.794;12.258;2023-04-24T10:28:54;2.63;;;0.97;;
1679;SDS011;838;51.794;12.258;2023-04-24T10:31:23;2.40;;;0.93;;
1679;SDS011;838;51.794;12.258;2023-04-24T10:33:51;2.80;;;0.90;;
1679;SDS011;838;51.794;12.258;2023-04-24T10:36:18;2.17;;;1.03;;
1679;SDS011;838;51.794;12.258;2023-04-24T10:38:49;3.27;;;1.40;;
1679;SDS011;838;51.794;12.258;2023-04-24T10:41:16;3.40;;;1.07;;
1679;SDS011;838;51.794;12.258;2023-04-24T10:43:45;2.10;;;1.00;;
1679;SDS011;838;51.794;12.258;2023-04-24T10:46:16;2.20;;;1.10;;
1679;SDS011;838;51.794;12.258;2023-04-24T10:48:53;3.50;;;1.17;;
1679;SDS011;838;51.794;12.258;2023-04-24T10:51:21;3.00;;;1.40;;
1679;SDS011;838;51.794;12.258;2023-04-24T10:53:49;2.53;;;1.00;;
1679;SDS011;838;51.794;12.258;2023-04-24T10:56:16;3.23;;;1.10;;
1679;SDS011;838;51.794;12.258;2023-04-24T10:58:43;3.90;;;1.30;;
1679;SDS011;838;51.794;12.258;2023-04-24T11:01:30;2.47;;;1.27;;
1679;SDS011;838;51.794;12.258;2023-04-24T11:04:01;2.23;;;1.10;;
1679;SDS011;838;51.794;12.258;2023-04-24T11:06:29;2.53;;;1.10;;
1679;SDS011;838;51.794;12.258;2023-04-24T11:09:06;2.40;;;1.40;;
1679;SDS011;838;51.794;12.258;2023-04-24T11:11:38;2.53;;;1.10;;
1679;SDS011;838;51.794;12.258;2023-04-24T11:14:09;2.00;;;0.90;;
1679;SDS011;838;51.794;12.258;2023-04-24T11:16:38;3.23;;;1.20;;
1679;SDS011;838;51.794;12.258;2023-04-24T11:27:04;2.67;;;1.30;;
1679;SDS011;838;51.794;12.258;2023-04-24T11:35:03;2.70;;;1.47;;
1679;SDS011;838;51.794;12.258;2023-04-24T11:40:01;2.37;;;0.90;;
1679;SDS011;838;51.794;12.258;2023-04-24T11:42:29;2.63;;;1.17;;
1679;SDS011;838;51.794;12.258;2023-04-24T11:45:02;3.53;;;1.37;;
1679;SDS011;838;51.794;12.258;2023-04-24T11:47:39;2.97;;;1.00;;
1679;SDS011;838;51.794;12.258;2023-04-24T11:50:07;2.67;;;1.27;;
1679;SDS011;838;51.794;12.258;2023-04-24T11:52:44;3.30;;;1.20;;
1679;SDS011;838;51.794;12.258;2023-04-24T11:57:39;2.37;;;1.20;;
1679;SDS011;838;51.794;12.258;2023-04-24T12:00:14;3.07;;;1.27;;
1679;SDS011;838;51.794;12.258;2023-04-24T12:02:44;2.63;;;1.10;;
1679;SDS011;838;51.794;12.258;2023-04-24T12:05:31;2.00;;;1.00;;
1679;SDS011;838;51.794;12.258;2023-04-24T12:07:56;2.70;;;1.60;;
1679;SDS011;838;51.794;12.258;2023-04-24T12:10:26;2.00;;;1.10;;
1679;SDS011;838;51.794;12.258;2023-04-24T12:12:55;2.40;;;1.10;;
1679;SDS011;838;51.794;12.258;2023-04-24T12:15:22;3.47;;;1.20;;
1679;SDS011;838;51.794;12.258;2023-04-24T12:17:50;2.27;;;1.30;;
1679;SDS011;838;51.794;12.258;2023-04-24T12:20:17;2.73;;;1.53;;
1679;SDS011;838;51.794;12.258;2023-04-24T12:22:59;2.73;;;1.43;;
1679;SDS011;838;51.794;12.258;2023-04-24T12:25:26;3.30;;;1.60;;
1679;SDS011;838;51.794;12.258;2023-04-24T12:30:47;2.40;;;1.40;;
1679;SDS011;838;51.794;12.258;2023-04-24T12:33:20;3.20;;;1.30;;
1679;SDS011;838;51.794;12.258;2023-04-24T12:35:47;2.63;;;1.60;;
1679;SDS011;838;51.794;12.258;2023-04-24T12:38:22;2.53;;;1.57;;
1679;SDS011;838;51.794;12.258;2023-04-24T12:41:05;2.37;;;1.60;;
1679;SDS011;838;51.794;12.258;2023-04-24T12:43:31;3.83;;;1.50;;
1679;SDS011;838;51.794;12.258;2023-04-24T12:45:58;3.20;;;1.63;;
1679;SDS011;838;51.794;12.258;2023-04-24T12:48:24;2.70;;;1.13;;
1679;SDS011;838;51.794;12.258;2023-04-24T12:50:53;3.40;;;1.53;;
1679;SDS011;838;51.794;12.258;2023-04-24T12:53:24;2.67;;;1.10;;
1679;SDS011;838;51.794;12.258;2023-04-24T12:55:51;2.30;;;1.37;;
1679;SDS011;838;51.794;12.258;2023-04-24T12:58:20;2.47;;;1.37;;
1679;SDS011;838;51.794;12.258;2023-04-24T13:00:47;3.37;;;1.60;;
1679;SDS011;838;51.794;12.258;2023-04-24T13:03:13;2.30;;;1.27;;
1679;SDS011;838;51.794;12.258;2023-04-24T13:05:42;2.73;;;1.03;;
1679;SDS011;838;51.794;12.258;2023-04-24T13:08:09;3.80;;;1.37;;
1679;SDS011;838;51.794;12.258;2023-04-24T13:10:35;3.13;;;1.50;;
1679;SDS011;838;51.794;12.258;2023-04-24T13:13:01;2.40;;;1.20;;
1679;SDS011;838;51.794;12.258;2023-04-24T13:15:28;2.60;;;1.80;;
1679;SDS011;838;51.794;12.258;2023-04-24T13:17:54;3.00;;;1.60;;
1679;SDS011;838;51.794;12.258;2023-04-24T13:20:20;2.10;;;1.27;;
1679;SDS011;838;51.794;12.258;2023-04-24T13:22:46;2.57;;;1.30;;
1679;SDS011;838;51.794;12.258;2023-04-24T13:25:17;2.80;;;1.70;;
1679;SDS011;838;51.794;12.258;2023-04-24T13:27:45;2.87;;;1.43;;
1679;SDS011;838;51.794;12.258;2023-04-24T13:30:16;3.30;;;1.50;;
1679;SDS011;838;51.794;12.258;2023-04-24T13:32:42;2.77;;;1.30;;
1679;SDS011;838;51.794;12.258;2023-04-24T13:35:09;2.70;;;1.10;;
1679;SDS011;838;51.794;12.258;2023-04-24T13:37:35;2.77;;;1.27;;
1679;SDS011;838;51.794;12.258;2023-04-24T13:40:07;2.07;;;1.17;;
1679;SDS011;838;51.794;12.258;2023-04-24T13:42:33;2.70;;;1.60;;
1679;SDS011;838;51.794;12.258;2023-04-24T13:44:59;3.37;;;1.37;;
1679;SDS011;838;51.794;12.258;2023-04-24T13:47:25;2.10;;;1.17;;
1679;SDS011;838;51.794;12.258;2023-04-24T13:49:50;2.77;;;1.40;;
1679;SDS011;838;51.794;12.258;2023-04-24T13:52:18;3.03;;;1.43;;
1679;SDS011;838;51.794;12.258;2023-04-24T13:54:44;2.10;;;1.10;;
1679;SDS011;838;51.794;12.258;2023-04-24T13:57:17;2.13;;;1.20;;
1679;SDS011;838;51.794;12.258;2023-04-24T13:59:43;4.80;;;1.27;;
1679;SDS011;838;51.794;12.258;2023-04-24T14:02:10;2.80;;;1.40;;
1679;SDS011;838;51.794;12.258;2023-04-24T14:04:36;2.17;;;1.10;;
1679;SDS011;838;51.794;12.258;2023-04-24T14:07:02;2.20;;;1.20;;
1679;SDS011;838;51.794;12.258;2023-04-24T14:09:28;3.20;;;1.57;;
1679;SDS011;838;51.794;12.258;2023-04-24T14:11:54;2.83;;;1.40;;
1679;SDS011;838;51.794;12.258;2023-04-24T14:14:19;2.20;;;1.20;;
1679;SDS011;838;51.794;12.258;2023-04-24T14:16:46;6.17;;;1.50;;
1679;SDS011;838;51.794;12.258;2023-04-24T14:19:12;2.60;;;1.20;;
1679;SDS011;838;51.794;12.258;2023-04-24T14:21:38;3.23;;;1.10;;
1679;SDS011;838;51.794;12.258;2023-04-24T14:24:03;3.87;;;1.47;;
1679;SDS011;838;51.794;12.258;2023-04-24T14:26:29;2.97;;;1.60;;
1679;SDS011;838;51.794;12.258;2023-04-24T14:28:55;3.27;;;1.60;;
1679;SDS011;838;51.794;12.258;2023-04-24T14:31:23;4.20;;;1.17;;
1679;SDS011;838;51.794;12.258;2023-04-24T14:33:49;2.50;;;0.90;;
1679;SDS011;838;51.794;12.258;2023-04-24T14:36:15;1.83;;;0.90;;
1679;SDS011;838;51.794;12.258;2023-04-24T14:38:41;2.23;;;0.90;;
1679;SDS011;838;51.794;12.258;2023-04-24T14:41:07;1.93;;;0.90;;
1679;SDS011;838;51.794;12.258;2023-04-24T14:43:35;3.53;;;0.90;;
1679;SDS011;838;51.794;12.258;2023-04-24T14:46:01;2.10;;;0.90;;
1679;SDS011;838;51.794;12.258;2023-04-24T14:48:27;3.10;;;0.80;;
1679;SDS011;838;51.794;12.258;2023-04-24T14:50:53;1.80;;;0.70;;
1679;SDS011;838;51.794;12.258;2023-04-24T14:53:19;1.90;;;0.60;;
1679;SDS011;838;51.794;12.258;2023-04-24T14:55:45;2.13;;;0.70;;
1679;SDS011;838;51.794;12.258;2023-04-24T14:58:10;2.70;;;1.10;;
1679;SDS011;838;51.794;12.258;2023-04-24T15:00:36;2.83;;;1.00;;
1679;SDS011;838;51.794;12.258;2023-04-24T15:03:03;1.90;;;0.80;;
1679;SDS011;838;51.794;12.258;2023-04-24T15:05:29;6.10;;;0.90;;
1679;SDS011;838;51.794;12.258;2023-04-24T15:07:55;3.27;;;0.97;;
1679;SDS011;838;51.794;12.258;2023-04-24T15:10:21;2.77;;;0.97;;
1679;SDS011;838;51.794;12.258;2023-04-24T15:12:48;3.20;;;1.10;;
1679;SDS011;838;51.794;12.258;2023-04-24T15:15:14;3.00;;;0.90;;
1679;SDS011;838;51.794;12.258;2023-04-24T15:17:40;3.43;;;1.03;;
1679;SDS011;838;51.794;12.258;2023-04-24T15:20:06;1.90;;;0.90;;
1679;SDS011;838;51.794;12.258;2023-04-24T15:22:33;5.90;;;0.80;;
1679;SDS011;838;51.794;12.258;2023-04-24T15:24:59;2.00;;;0.80;;
1679;SDS011;838;51.794;12.258;2023-04-24T15:27:26;1.90;;;0.80;;
1679;SDS011;838;51.794;12.258;2023-04-24T15:29:51;4.23;;;1.07;;
1679;SDS011;838;51.794;12.258;2023-04-24T15:32:18;2.53;;;1.20;;
1679;SDS011;838;51.794;12.258;2023-04-24T15:34:44;2.33;;;1.10;;